Weather at Atc Heliport

Public forecast

Using degrees Fahrenheit for public forecast. Weather courtesy of forecast.io.

Closest aviation weather report (METAR) to Atc Heliport

Closest report is Witham Field, 13.5 nm (24.9 km) NNW. Retrieved 2021/01/22 00:47 UTC (20 minutes ago):

KSUA 220047Z 25003KT 10SM CLR 19/09 A3007

Closest aviation forecast (TAF) to Atc Heliport

Closest forecast is Witham Field, 13.5 nm (24.9 km) NNW. Retrieved 2021-01-22 00:45 UTC (22 minutes ago):

TAF KSUA 212342Z 2200/2224 24004KT P6SM BKN250 FM220500 VRB02KT P6SM SCT250 FM221600 24009KT P6SM FEW250 FM222300 25005KT P6SM SCT100